Time;durP1;ratioP1;P1;durP2;ratioP2;P2;SDS_P1;SDS_P2;PMS_P1;PMS_P2;Temp;Humidity;BMP_temperature;BMP_pressure;BME280_temperature;BME280_humidity;BME280_pressure;Samples;Min_cycle;Max_cycle;Signal;HPM_P1;HPM_P2
2023/08/14 00:00:56;;;;;;;7.33;2.03;;;;;;;;;;5097521;28;20225;-89
2023/08/14 00:03:23;;;;;;;9.60;2.43;;;;;;;;;;5096833;28;20590;-89
2023/08/14 00:05:51;;;;;;;5.87;1.93;;;;;;;;;;5097265;28;20240;-89
2023/08/14 00:08:18;;;;;;;8.73;2.43;;;;;;;;;;5096667;28;20194;-90
2023/08/14 00:10:45;;;;;;;8.53;2.20;;;;;;;;;;5097025;28;20211;-89
2023/08/14 00:13:13;;;;;;;8.20;2.60;;;;;;;;;;5097192;28;20222;-90
2023/08/14 00:15:40;;;;;;;6.97;2.10;;;;;;;;;;5096867;28;20233;-89
2023/08/14 00:18:09;;;;;;;8.63;2.30;;;;;;;;;;5096489;28;20198;-89
2023/08/14 00:20:36;;;;;;;7.87;1.97;;;;;;;;;;5096828;28;20202;-89
2023/08/14 00:23:03;;;;;;;7.67;2.07;;;;;;;;;;5096356;28;20241;-89
2023/08/14 00:25:31;;;;;;;5.37;2.10;;;;;;;;;;5096169;28;20762;-90
2023/08/14 00:27:58;;;;;;;6.57;2.30;;;;;;;;;;5096244;28;20282;-89
2023/08/14 00:30:25;;;;;;;7.67;2.10;;;;;;;;;;5096599;28;20222;-90
2023/08/14 00:32:53;;;;;;;8.00;2.20;;;;;;;;;;5096047;28;20289;-89
2023/08/14 00:35:21;;;;;;;6.07;2.20;;;;;;;;;;5096350;28;20281;-89
2023/08/14 00:37:49;;;;;;;6.43;2.27;;;;;;;;;;5096613;28;20205;-89
2023/08/14 00:40:17;;;;;;;8.30;2.20;;;;;;;;;;5096070;28;20302;-89
2023/08/14 00:42:45;;;;;;;7.13;2.40;;;;;;;;;;5096191;28;20187;-89
2023/08/14 00:45:13;;;;;;;6.40;2.17;;;;;;;;;;5095833;28;20210;-88
2023/08/14 00:47:41;;;;;;;7.57;2.40;;;;;;;;;;5095955;28;20230;-89
2023/08/14 00:50:09;;;;;;;6.13;2.20;;;;;;;;;;5096497;28;20281;-89
2023/08/14 00:52:39;;;;;;;10.43;2.50;;;;;;;;;;5095677;28;20303;-89
2023/08/14 00:55:08;;;;;;;7.00;2.40;;;;;;;;;;5096014;28;20797;-88
2023/08/14 00:57:36;;;;;;;7.37;2.23;;;;;;;;;;5096036;28;20196;-89
2023/08/14 01:00:05;;;;;;;5.57;2.30;;;;;;;;;;5095702;28;20191;-89
2023/08/14 01:02:32;;;;;;;5.60;2.10;;;;;;;;;;5095823;28;20194;-90
2023/08/14 01:05:00;;;;;;;6.70;2.20;;;;;;;;;;5095231;28;20214;-89
2023/08/14 01:07:29;;;;;;;4.73;2.03;;;;;;;;;;5095841;28;20290;-90
2023/08/14 01:09:57;;;;;;;5.13;2.13;;;;;;;;;;5095866;28;20202;-89
2023/08/14 01:12:27;;;;;;;5.83;2.00;;;;;;;;;;5095929;28;20233;-89
2023/08/14 01:15:03;;;;;;;3.73;2.00;;;;;;;;;;5095220;28;20608;-89
2023/08/14 01:17:32;;;;;;;6.37;2.20;;;;;;;;;;5082108;28;20206;-90
2023/08/14 01:19:59;;;;;;;8.10;2.37;;;;;;;;;;5074688;28;20290;-89
2023/08/14 01:22:31;;;;;;;5.70;2.40;;;;;;;;;;5075117;28;20263;-88
2023/08/14 01:25:19;;;;;;;5.83;2.53;;;;;;;;;;5074716;28;20211;-89
2023/08/14 01:27:47;;;;;;;5.27;2.20;;;;;;;;;;5075019;28;20227;-89
2023/08/14 01:30:14;;;;;;;8.60;2.17;;;;;;;;;;5074601;28;20199;-88
2023/08/14 01:32:42;;;;;;;5.90;2.27;;;;;;;;;;5074580;28;20727;-89
2023/08/14 01:35:09;;;;;;;6.63;2.30;;;;;;;;;;5075228;28;20301;-89
2023/08/14 01:37:42;;;;;;;6.20;2.50;;;;;;;;;;5074891;28;20294;-89
2023/08/14 01:40:13;;;;;;;7.93;2.73;;;;;;;;;;5074925;28;20222;-89
2023/08/14 01:42:40;;;;;;;8.73;2.77;;;;;;;;;;5074638;28;20215;-89
2023/08/14 01:45:10;;;;;;;7.47;2.43;;;;;;;;;;5074116;28;20309;-89
2023/08/14 01:47:39;;;;;;;5.93;2.53;;;;;;;;;;5074998;28;20206;-89
2023/08/14 01:50:08;;;;;;;5.23;2.53;;;;;;;;;;5074036;28;20282;-89
2023/08/14 01:52:35;;;;;;;7.73;2.70;;;;;;;;;;5074407;28;20727;-89
2023/08/14 01:55:03;;;;;;;5.20;2.47;;;;;;;;;;5074817;28;20187;-89
2023/08/14 01:57:32;;;;;;;8.67;2.90;;;;;;;;;;5074410;28;20195;-89
2023/08/14 02:00:01;;;;;;;6.10;2.47;;;;;;;;;;5074148;28;20201;-89
2023/08/14 02:02:28;;;;;;;8.70;2.80;;;;;;;;;;5074230;28;20729;-88
2023/08/14 02:04:55;;;;;;;5.73;2.60;;;;;;;;;;5074162;28;20207;-89
2023/08/14 02:07:22;;;;;;;8.03;2.30;;;;;;;;;;5074849;28;20679;-89
2023/08/14 02:09:49;;;;;;;6.13;2.50;;;;;;;;;;5074372;28;20218;-89
2023/08/14 02:12:17;;;;;;;8.63;3.10;;;;;;;;;;5074013;28;20234;-89
2023/08/14 02:14:45;;;;;;;7.83;2.50;;;;;;;;;;5073881;28;20235;-88
2023/08/14 02:17:13;;;;;;;7.07;2.80;;;;;;;;;;5084864;28;20225;-89
2023/08/14 02:19:40;;;;;;;8.13;2.47;;;;;;;;;;5093364;28;20225;-89
2023/08/14 02:22:08;;;;;;;6.37;2.43;;;;;;;;;;5094353;28;20281;-88
2023/08/14 02:24:35;;;;;;;10.50;3.00;;;;;;;;;;5094420;28;20183;-89
2023/08/14 02:27:02;;;;;;;7.33;2.60;;;;;;;;;;5094492;28;20271;-89
2023/08/14 02:29:29;;;;;;;7.17;2.53;;;;;;;;;;5093950;28;20260;-89
2023/08/14 02:31:58;;;;;;;4.63;2.70;;;;;;;;;;5089207;28;20231;-88
2023/08/14 02:34:33;;;;;;;5.73;2.67;;;;;;;;;;5094258;28;20637;-89
2023/08/14 02:37:00;;;;;;;8.83;3.00;;;;;;;;;;5093687;28;20193;-89
2023/08/14 02:39:27;;;;;;;7.03;2.87;;;;;;;;;;5094392;28;20218;-88
2023/08/14 02:41:55;;;;;;;7.10;2.27;;;;;;;;;;5092661;28;20286;-89
2023/08/14 02:44:22;;;;;;;4.30;2.57;;;;;;;;;;5094129;28;20669;-88
2023/08/14 02:46:49;;;;;;;6.30;2.57;;;;;;;;;;5093595;28;20282;-88
2023/08/14 02:49:18;;;;;;;4.80;2.70;;;;;;;;;;5094060;28;20654;-89
2023/08/14 02:51:45;;;;;;;6.00;2.53;;;;;;;;;;5094211;28;20273;-89
2023/08/14 02:54:12;;;;;;;8.37;2.80;;;;;;;;;;5093520;28;20264;-88
2023/08/14 02:56:39;;;;;;;8.50;2.67;;;;;;;;;;5093585;28;20214;-89
2023/08/14 02:59:07;;;;;;;6.50;2.50;;;;;;;;;;5092839;28;20204;-89
2023/08/14 03:01:34;;;;;;;5.57;2.73;;;;;;;;;;5093400;28;20650;-88
2023/08/14 03:04:01;;;;;;;7.93;2.60;;;;;;;;;;5093524;28;20195;-89
2023/08/14 03:06:31;;;;;;;7.40;2.87;;;;;;;;;;5093438;28;20297;-89
2023/08/14 03:08:58;;;;;;;4.57;2.60;;;;;;;;;;5093819;28;20197;-89
2023/08/14 03:11:25;;;;;;;6.60;2.80;;;;;;;;;;5093293;28;20292;-89
2023/08/14 03:13:53;;;;;;;5.43;2.63;;;;;;;;;;5093691;28;20615;-89
2023/08/14 03:16:20;;;;;;;7.57;2.93;;;;;;;;;;5090312;28;20969;-89
2023/08/14 03:18:47;;;;;;;4.03;2.13;;;;;;;;;;5073527;28;20271;-89
2023/08/14 03:21:15;;;;;;;5.50;2.47;;;;;;;;;;5073586;28;20290;-88
2023/08/14 03:23:45;;;;;;;6.00;2.50;;;;;;;;;;5073656;28;20668;-89
2023/08/14 03:26:14;;;;;;;6.00;2.80;;;;;;;;;;5073654;28;20218;-89
2023/08/14 03:28:41;;;;;;;6.37;2.87;;;;;;;;;;5077427;28;20257;-89
2023/08/14 03:31:08;;;;;;;5.90;2.90;;;;;;;;;;5077247;28;20291;-88
2023/08/14 03:33:35;;;;;;;6.53;2.73;;;;;;;;;;5077352;28;20209;-88
2023/08/14 03:36:03;;;;;;;7.60;2.90;;;;;;;;;;5077197;28;20274;-89
2023/08/14 03:38:30;;;;;;;5.83;3.13;;;;;;;;;;5077276;28;20219;-89
2023/08/14 03:40:59;;;;;;;6.13;2.83;;;;;;;;;;5076517;28;20200;-90
2023/08/14 03:43:26;;;;;;;5.03;2.87;;;;;;;;;;5077274;28;20290;-89
2023/08/14 03:45:54;;;;;;;7.10;2.70;;;;;;;;;;5076736;28;20227;-89
2023/08/14 03:48:21;;;;;;;5.43;2.93;;;;;;;;;;5077150;28;20277;-89
2023/08/14 03:50:48;;;;;;;6.10;2.70;;;;;;;;;;5077202;28;20215;-89
2023/08/14 03:53:16;;;;;;;7.57;2.70;;;;;;;;;;5076864;28;20676;-90
2023/08/14 03:55:43;;;;;;;7.33;2.87;;;;;;;;;;5076654;28;20294;-89
2023/08/14 03:58:12;;;;;;;8.30;2.90;;;;;;;;;;5076936;28;20278;-89
2023/08/14 04:00:39;;;;;;;9.07;2.77;;;;;;;;;;5076576;28;20230;-89
2023/08/14 04:03:07;;;;;;;8.13;2.90;;;;;;;;;;5076856;28;20283;-89
2023/08/14 04:05:37;;;;;;;6.37;3.10;;;;;;;;;;5076662;28;20230;-89
2023/08/14 04:08:05;;;;;;;8.50;3.20;;;;;;;;;;5076744;28;20222;-89
2023/08/14 04:10:32;;;;;;;4.23;2.70;;;;;;;;;;5076131;28;20626;-89
2023/08/14 04:13:00;;;;;;;6.27;2.73;;;;;;;;;;5076266;28;20199;-90
2023/08/14 04:15:28;;;;;;;9.57;3.00;;;;;;;;;;5076561;28;20218;-89
2023/08/14 04:17:56;;;;;;;8.40;3.00;;;;;;;;;;5076261;28;20223;-89
2023/08/14 04:20:23;;;;;;;9.93;3.33;;;;;;;;;;5076361;28;20282;-89
2023/08/14 04:22:50;;;;;;;8.93;3.30;;;;;;;;;;5075874;28;20283;-89
2023/08/14 04:25:19;;;;;;;8.47;3.00;;;;;;;;;;5076055;28;20283;-89
2023/08/14 04:27:47;;;;;;;6.97;3.00;;;;;;;;;;5076516;28;20187;-89
2023/08/14 04:30:14;;;;;;;7.80;2.93;;;;;;;;;;5076634;28;20226;-89
2023/08/14 04:32:43;;;;;;;7.13;3.00;;;;;;;;;;5076475;28;20207;-89
2023/08/14 04:35:11;;;;;;;9.20;2.97;;;;;;;;;;5075847;28;20202;-89
2023/08/14 04:37:38;;;;;;;5.27;2.97;;;;;;;;;;5075280;28;20196;-89
2023/08/14 04:40:05;;;;;;;6.03;3.13;;;;;;;;;;5076038;28;20211;-89
2023/08/14 04:42:33;;;;;;;6.70;2.63;;;;;;;;;;5075864;28;20294;-89
2023/08/14 04:45:00;;;;;;;6.80;3.07;;;;;;;;;;5076091;28;20202;-89
2023/08/14 04:47:28;;;;;;;4.47;2.40;;;;;;;;;;5075710;28;20215;-90
2023/08/14 04:49:57;;;;;;;5.23;2.47;;;;;;;;;;5076047;28;20274;-88
2023/08/14 04:52:24;;;;;;;4.93;2.50;;;;;;;;;;5075334;28;20251;-89
2023/08/14 04:54:52;;;;;;;6.50;2.43;;;;;;;;;;5075708;28;20282;-89
2023/08/14 04:57:19;;;;;;;5.07;2.60;;;;;;;;;;5075811;28;20221;-89
2023/08/14 04:59:47;;;;;;;4.40;2.60;;;;;;;;;;5075916;28;20244;-88
2023/08/14 05:02:14;;;;;;;9.50;3.10;;;;;;;;;;5075454;28;20287;-88
2023/08/14 05:04:42;;;;;;;4.53;2.87;;;;;;;;;;5075635;28;20281;-89
2023/08/14 05:07:10;;;;;;;10.27;3.03;;;;;;;;;;5075395;28;20728;-89
2023/08/14 05:09:38;;;;;;;7.67;3.20;;;;;;;;;;5075812;28;20689;-89
2023/08/14 05:12:05;;;;;;;6.97;3.43;;;;;;;;;;5075405;28;20187;-88
2023/08/14 05:14:34;;;;;;;5.67;3.00;;;;;;;;;;5075115;28;20217;-89
2023/08/14 05:17:01;;;;;;;7.20;3.03;;;;;;;;;;5084025;28;20248;-89
2023/08/14 05:19:28;;;;;;;6.23;3.10;;;;;;;;;;5095555;28;20569;-88
2023/08/14 05:21:56;;;;;;;7.10;3.20;;;;;;;;;;5095242;28;20234;-89
2023/08/14 05:24:25;;;;;;;12.97;3.43;;;;;;;;;;5095767;28;20221;-89
2023/08/14 05:26:52;;;;;;;7.83;3.50;;;;;;;;;;5095175;28;20322;-89
2023/08/14 05:29:19;;;;;;;8.07;3.43;;;;;;;;;;5095538;28;20218;-89
2023/08/14 05:31:47;;;;;;;9.63;3.80;;;;;;;;;;5095521;28;20194;-89
2023/08/14 05:34:14;;;;;;;7.17;3.20;;;;;;;;;;5095361;28;20207;-88
2023/08/14 05:36:41;;;;;;;6.70;3.10;;;;;;;;;;5095107;28;20229;-88
2023/08/14 05:39:09;;;;;;;7.53;3.07;;;;;;;;;;5095247;28;20274;-89
2023/08/14 05:41:38;;;;;;;5.10;2.97;;;;;;;;;;5094899;28;20683;-89
2023/08/14 05:44:05;;;;;;;7.27;3.00;;;;;;;;;;5094745;28;20286;-89
2023/08/14 05:46:32;;;;;;;7.93;2.90;;;;;;;;;;5094747;28;20233;-90
2023/08/14 05:48:59;;;;;;;6.17;3.20;;;;;;;;;;5095384;28;20285;-89
2023/08/14 05:51:26;;;;;;;6.87;2.83;;;;;;;;;;5094440;28;20218;-89
2023/08/14 05:53:54;;;;;;;6.43;3.00;;;;;;;;;;5094581;28;20257;-88
2023/08/14 05:56:21;;;;;;;6.03;3.10;;;;;;;;;;5094789;28;20220;-89
2023/08/14 05:58:50;;;;;;;6.63;3.00;;;;;;;;;;5094993;28;20222;-89
2023/08/14 06:01:17;;;;;;;5.50;2.87;;;;;;;;;;5094638;28;20285;-88
2023/08/14 06:03:45;;;;;;;5.67;3.20;;;;;;;;;;5094488;28;20536;-89
2023/08/14 06:06:12;;;;;;;7.73;3.00;;;;;;;;;;5094245;28;20225;-89
2023/08/14 06:08:39;;;;;;;6.67;2.90;;;;;;;;;;5094897;28;20675;-89
2023/08/14 06:11:07;;;;;;;5.97;2.67;;;;;;;;;;5094944;28;20290;-89
2023/08/14 06:13:34;;;;;;;8.83;2.73;;;;;;;;;;5094785;28;20229;-89
2023/08/14 06:16:02;;;;;;;10.37;2.70;;;;;;;;;;5093994;28;20633;-88
2023/08/14 06:18:29;;;;;;;8.03;2.77;;;;;;;;;;5074469;28;20270;-89
2023/08/14 06:20:57;;;;;;;7.45;2.85;;;;;;;;;;5073769;28;20219;-89
2023/08/14 06:23:24;;;;;;;8.45;2.92;;;;;;;;;;5073786;28;20222;-89
2023/08/14 06:25:51;;;;;;;6.20;2.40;;;;;;;;;;5073622;28;20663;-89
2023/08/14 06:28:19;;;;;;;5.90;2.10;;;;;;;;;;5073905;28;20211;-89
2023/08/14 06:30:46;;;;;;;5.65;1.73;;;;;;;;;;5074068;28;20261;-88
2023/08/14 06:33:15;;;;;;;6.38;2.05;;;;;;;;;;5073586;28;20230;-89
2023/08/14 06:35:42;;;;;;;5.95;2.00;;;;;;;;;;5074089;28;20195;-89
2023/08/14 06:38:09;;;;;;;9.55;2.58;;;;;;;;;;5073711;28;20227;-89
2023/08/14 06:40:37;;;;;;;8.50;2.58;;;;;;;;;;5073913;28;20278;-89
2023/08/14 06:43:06;;;;;;;7.40;2.10;;;;;;;;;;5074001;28;20223;-89
2023/08/14 06:45:33;;;;;;;4.32;1.73;;;;;;;;;;5074314;28;20210;-89
2023/08/14 06:48:00;;;;;;;3.65;1.52;;;;;;;;;;5073306;28;20226;-89
2023/08/14 06:50:29;;;;;;;6.72;2.10;;;;;;;;;;5073753;28;20385;-89
2023/08/14 06:52:56;;;;;;;8.60;1.83;;;;;;;;;;5073438;28;20270;-89
2023/08/14 06:55:24;;;;;;;6.38;1.73;;;;;;;;;;5073560;28;20183;-89
2023/08/14 06:57:51;;;;;;;5.60;1.80;;;;;;;;;;5073882;28;20226;-89
2023/08/14 07:00:18;;;;;;;7.25;1.75;;;;;;;;;;5074170;28;20302;-89
2023/08/14 07:02:47;;;;;;;7.25;1.77;;;;;;;;;;5072857;28;20226;-90
2023/08/14 07:05:14;;;;;;;6.10;1.33;;;;;;;;;;5072652;28;20202;-92
2023/08/14 07:07:43;;;;;;;8.35;1.88;;;;;;;;;;5072344;28;20223;-82
2023/08/14 07:10:11;;;;;;;4.95;1.52;;;;;;;;;;5073379;28;20199;-91
2023/08/14 07:12:38;;;;;;;6.88;1.60;;;;;;;;;;5073274;28;20289;-90
2023/08/14 07:15:08;;;;;;;5.78;1.92;;;;;;;;;;5073919;28;20227;-90
2023/08/14 07:17:36;;;;;;;5.82;1.70;;;;;;;;;;5073455;28;20219;-90
2023/08/14 07:20:05;;;;;;;7.13;2.08;;;;;;;;;;5073357;28;20198;-91
2023/08/14 07:22:32;;;;;;;7.72;2.30;;;;;;;;;;5073938;28;20205;-89
2023/08/14 07:25:01;;;;;;;5.22;1.67;;;;;;;;;;5073203;28;20195;-90
2023/08/14 07:27:28;;;;;;;7.45;1.90;;;;;;;;;;5072976;28;20306;-91
2023/08/14 07:29:55;;;;;;;6.95;1.45;;;;;;;;;;5073398;28;20195;-90
2023/08/14 07:32:22;;;;;;;3.83;1.30;;;;;;;;;;5071898;28;20644;-90
2023/08/14 07:34:49;;;;;;;4.63;1.70;;;;;;;;;;5073464;28;20282;-90
2023/08/14 07:37:17;;;;;;;4.68;1.55;;;;;;;;;;5073276;28;20219;-91
2023/08/14 07:39:44;;;;;;;4.47;1.70;;;;;;;;;;5073003;28;20262;-91
2023/08/14 07:42:13;;;;;;;4.97;1.50;;;;;;;;;;5073574;28;20286;-91
2023/08/14 07:44:41;;;;;;;3.65;1.50;;;;;;;;;;5073611;28;20271;-90
2023/08/14 07:47:10;;;;;;;4.63;1.55;;;;;;;;;;5072476;28;20314;-90
2023/08/14 07:49:38;;;;;;;5.78;1.50;;;;;;;;;;5073452;28;20676;-90
2023/08/14 07:52:06;;;;;;;4.93;1.60;;;;;;;;;;5072692;28;20278;-90
2023/08/14 07:54:33;;;;;;;6.35;1.88;;;;;;;;;;5073236;28;20759;-90
2023/08/14 07:57:00;;;;;;;7.90;1.77;;;;;;;;;;5073314;28;20230;-90
2023/08/14 07:59:29;;;;;;;7.55;1.63;;;;;;;;;;5073211;28;20233;-90
2023/08/14 08:01:56;;;;;;;7.20;1.88;;;;;;;;;;5072394;28;20187;-91
2023/08/14 08:04:24;;;;;;;5.78;1.35;;;;;;;;;;5073261;28;20214;-91
2023/08/14 08:06:52;;;;;;;5.68;1.40;;;;;;;;;;5073072;28;20770;-91
2023/08/14 08:09:19;;;;;;;8.70;1.23;;;;;;;;;;5073281;28;20183;-91
2023/08/14 08:11:46;;;;;;;9.45;1.63;;;;;;;;;;5073070;28;20195;-91
2023/08/14 08:14:14;;;;;;;5.13;1.50;;;;;;;;;;5074949;28;20219;-92
2023/08/14 08:16:44;;;;;;;5.13;1.27;;;;;;;;;;5081255;28;20216;-92
2023/08/14 08:19:11;;;;;;;11.32;1.80;;;;;;;;;;5096988;28;20221;-90
2023/08/14 08:21:39;;;;;;;5.38;1.65;;;;;;;;;;5096889;28;20214;-91
2023/08/14 08:24:07;;;;;;;4.90;1.60;;;;;;;;;;5096622;28;20237;-90
2023/08/14 08:26:34;;;;;;;6.63;1.60;;;;;;;;;;5096458;28;20646;-92
2023/08/14 08:29:02;;;;;;;6.32;2.08;;;;;;;;;;5096444;28;20218;-94
2023/08/14 08:31:29;;;;;;;8.32;1.80;;;;;;;;;;5096178;28;20198;-93
2023/08/14 08:33:58;;;;;;;6.68;1.70;;;;;;;;;;5096827;28;20714;-93
2023/08/14 08:36:26;;;;;;;5.35;2.00;;;;;;;;;;5096701;28;20187;-93
2023/08/14 08:38:53;;;;;;;6.30;2.00;;;;;;;;;;5096656;28;20277;-93
2023/08/14 08:41:22;;;;;;;7.63;1.80;;;;;;;;;;5096678;28;20762;-93
2023/08/14 08:43:52;;;;;;;10.15;2.30;;;;;;;;;;5096469;28;20195;-93
2023/08/14 08:46:21;;;;;;;8.02;2.10;;;;;;;;;;5096086;28;20229;-93
2023/08/14 08:48:50;;;;;;;6.35;1.80;;;;;;;;;;5096395;28;20317;-93
2023/08/14 08:51:19;;;;;;;3.75;1.33;;;;;;;;;;5096399;28;20218;-94
2023/08/14 08:53:46;;;;;;;9.07;1.95;;;;;;;;;;5095914;28;20330;-93
2023/08/14 08:56:14;;;;;;;6.30;1.90;;;;;;;;;;5095985;28;20191;-92
2023/08/14 08:58:41;;;;;;;8.20;1.73;;;;;;;;;;5096056;28;20202;-92
2023/08/14 09:01:08;;;;;;;6.95;2.10;;;;;;;;;;5096076;28;20277;-91
2023/08/14 09:03:36;;;;;;;7.05;1.92;;;;;;;;;;5096546;28;20253;-93
2023/08/14 09:06:03;;;;;;;10.85;3.30;;;;;;;;;;5096033;28;20248;-93
2023/08/14 09:08:32;;;;;;;7.28;2.50;;;;;;;;;;5095814;28;20313;-93
2023/08/14 09:10:59;;;;;;;7.90;2.55;;;;;;;;;;5095827;28;20218;-94
2023/08/14 09:13:27;;;;;;;10.15;2.10;;;;;;;;;;5095301;28;20225;-94
2023/08/14 09:15:54;;;;;;;6.75;2.05;;;;;;;;;;5096151;28;20222;-92
2023/08/14 09:18:21;;;;;;;8.73;2.05;;;;;;;;;;5095489;28;20226;-93
2023/08/14 09:20:48;;;;;;;9.45;2.40;;;;;;;;;;5095843;28;20226;-92
2023/08/14 09:23:16;;;;;;;6.53;2.15;;;;;;;;;;5095367;28;20277;-92
2023/08/14 09:25:46;;;;;;;8.15;2.75;;;;;;;;;;5095602;28;20285;-93
2023/08/14 09:28:14;;;;;;;8.68;2.75;;;;;;;;;;5095136;28;20214;-92
2023/08/14 09:30:42;;;;;;;5.25;2.10;;;;;;;;;;5096146;28;20273;-93
2023/08/14 09:33:09;;;;;;;7.22;2.30;;;;;;;;;;5095401;28;20271;-92
2023/08/14 09:35:37;;;;;;;7.10;2.30;;;;;;;;;;5095355;28;20316;-93
2023/08/14 09:38:05;;;;;;;9.38;3.50;;;;;;;;;;5095123;28;20285;-92
2023/08/14 09:40:32;;;;;;;9.20;2.80;;;;;;;;;;5095664;28;20695;-93
2023/08/14 09:43:01;;;;;;;8.70;3.72;;;;;;;;;;5095923;28;20289;-92
2023/08/14 09:45:34;;;;;;;6.65;3.10;;;;;;;;;;5096291;28;20222;-93
2023/08/14 09:48:03;;;;;;;6.50;3.10;;;;;;;;;;5095581;28;20221;-94
2023/08/14 09:50:30;;;;;;;10.18;4.90;;;;;;;;;;5095876;28;20252;-94
2023/08/14 09:52:59;;;;;;;6.47;2.10;;;;;;;;;;5095816;28;20313;-92
2023/08/14 09:55:27;;;;;;;6.28;1.85;;;;;;;;;;5096322;28;20199;-92
2023/08/14 09:57:54;;;;;;;9.18;2.05;;;;;;;;;;5095168;28;20197;-93
2023/08/14 10:00:23;;;;;;;5.15;1.85;;;;;;;;;;5095665;28;20226;-94
2023/08/14 10:02:50;;;;;;;6.20;2.10;;;;;;;;;;5097176;28;20278;-93
2023/08/14 10:05:19;;;;;;;5.50;1.88;;;;;;;;;;5097493;28;20728;-93
2023/08/14 10:07:46;;;;;;;4.55;1.70;;;;;;;;;;5097236;28;20214;-92
2023/08/14 10:10:14;;;;;;;5.70;1.90;;;;;;;;;;5096804;28;20217;-93
2023/08/14 10:12:45;;;;;;;7.45;2.13;;;;;;;;;;5097104;28;20281;-93
2023/08/14 10:15:14;;;;;;;8.65;2.08;;;;;;;;;;5096247;28;20289;-93
2023/08/14 10:17:47;;;;;;;8.90;1.98;;;;;;;;;;5096547;28;20201;-92
2023/08/14 10:20:17;;;;;;;9.00;2.15;;;;;;;;;;5096587;28;20232;-93
2023/08/14 10:22:44;;;;;;;7.00;2.00;;;;;;;;;;5096314;28;20308;-93
2023/08/14 10:25:13;;;;;;;6.82;2.17;;;;;;;;;;5095967;28;20196;-92
2023/08/14 10:27:41;;;;;;;8.82;2.25;;;;;;;;;;5095760;28;20407;-92
2023/08/14 10:30:09;;;;;;;8.82;2.40;;;;;;;;;;5096104;28;20198;-91
2023/08/14 10:32:36;;;;;;;7.65;2.22;;;;;;;;;;5096498;28;20191;-92
2023/08/14 10:35:06;;;;;;;6.35;1.85;;;;;;;;;;5096530;28;20746;-93
2023/08/14 10:37:42;;;;;;;10.20;5.30;;;;;;;;;;5096043;28;20190;-92
2023/08/14 10:40:16;;;;;;;8.88;2.65;;;;;;;;;;5097209;28;20190;-92
2023/08/14 10:42:45;;;;;;;5.35;1.85;;;;;;;;;;5096676;28;20222;-92
2023/08/14 10:45:13;;;;;;;5.05;1.63;;;;;;;;;;5097100;28;20213;-93
2023/08/14 10:47:40;;;;;;;6.03;2.10;;;;;;;;;;5097174;28;20214;-93
2023/08/14 10:50:16;;;;;;;6.25;1.83;;;;;;;;;;5097186;28;20198;-92
2023/08/14 10:52:47;;;;;;;6.38;1.95;;;;;;;;;;5096600;28;20244;-94
2023/08/14 10:55:18;;;;;;;7.18;1.88;;;;;;;;;;5097024;28;20210;-93
2023/08/14 10:57:47;;;;;;;5.93;2.10;;;;;;;;;;5098381;28;20198;-92
2023/08/14 11:00:22;;;;;;;4.75;1.77;;;;;;;;;;5097441;28;20623;-94
2023/08/14 11:02:53;;;;;;;7.85;1.95;;;;;;;;;;5098465;28;20636;-93
2023/08/14 11:05:22;;;;;;;6.13;2.20;;;;;;;;;;5097032;28;20240;-94
2023/08/14 11:07:58;;;;;;;5.05;1.80;;;;;;;;;;5097198;28;20215;-94
2023/08/14 11:10:27;;;;;;;6.20;2.05;;;;;;;;;;5097019;28;20190;-94
2023/08/14 11:12:54;;;;;;;5.75;1.88;;;;;;;;;;5097924;28;20190;-93
2023/08/14 11:15:22;;;;;;;6.10;2.13;;;;;;;;;;5098759;28;20270;-94
2023/08/14 11:17:50;;;;;;;6.50;2.40;;;;;;;;;;5097666;28;20677;-94
2023/08/14 11:20:17;;;;;;;6.93;2.35;;;;;;;;;;5098963;28;20216;-94
2023/08/14 11:22:46;;;;;;;5.43;2.47;;;;;;;;;;5098154;28;20209;-93
2023/08/14 11:25:15;;;;;;;13.95;6.28;;;;;;;;;;5096966;28;20624;-93
2023/08/14 11:27:42;;;;;;;7.13;3.90;;;;;;;;;;5097339;28;20230;-94
2023/08/14 11:30:10;;;;;;;8.13;3.55;;;;;;;;;;5098615;28;20233;-93
2023/08/14 11:32:37;;;;;;;8.32;4.03;;;;;;;;;;5097553;28;20194;-94
2023/08/14 11:35:05;;;;;;;6.60;2.33;;;;;;;;;;5100712;28;20574;-93
2023/08/14 11:37:33;;;;;;;6.85;2.30;;;;;;;;;;5100177;28;20229;-93
2023/08/14 11:40:04;;;;;;;6.72;2.28;;;;;;;;;;5099089;28;20206;-94
2023/08/14 11:42:32;;;;;;;6.53;2.22;;;;;;;;;;5098934;28;20204;-93
2023/08/14 11:45:02;;;;;;;7.05;2.00;;;;;;;;;;5100713;28;20194;-93
2023/08/14 11:47:30;;;;;;;7.18;2.20;;;;;;;;;;5103102;28;20555;-94
2023/08/14 11:49:58;;;;;;;5.97;1.92;;;;;;;;;;5104709;28;20226;-93
2023/08/14 11:52:26;;;;;;;5.68;1.83;;;;;;;;;;5104151;28;20317;-93
2023/08/14 11:54:54;;;;;;;6.85;2.15;;;;;;;;;;5108772;28;20191;-94
2023/08/14 11:57:25;;;;;;;7.82;2.28;;;;;;;;;;5104431;28;20237;-93
2023/08/14 11:59:52;;;;;;;9.48;1.92;;;;;;;;;;5100243;28;20225;-93
2023/08/14 12:02:20;;;;;;;5.22;2.15;;;;;;;;;;5099500;28;20737;-92
2023/08/14 12:04:47;;;;;;;7.20;1.95;;;;;;;;;;5098604;28;20274;-94
2023/08/14 12:07:19;;;;;;;6.55;1.80;;;;;;;;;;5098978;28;20239;-92
2023/08/14 12:09:47;;;;;;;8.57;1.83;;;;;;;;;;5097913;28;20305;-93
2023/08/14 12:12:14;;;;;;;6.57;1.90;;;;;;;;;;5098647;27;20202;-94
2023/08/14 12:14:44;;;;;;;5.55;1.95;;;;;;;;;;5099264;28;20694;-93
2023/08/14 12:17:11;;;;;;;6.95;2.70;;;;;;;;;;5099124;28;20194;-92
2023/08/14 12:19:39;;;;;;;6.15;2.20;;;;;;;;;;5099324;27;20207;-94
2023/08/14 12:22:07;;;;;;;5.25;2.22;;;;;;;;;;5099059;28;20285;-93
2023/08/14 12:24:39;;;;;;;4.43;1.80;;;;;;;;;;5099756;28;20273;-95
2023/08/14 12:27:14;;;;;;;5.28;1.90;;;;;;;;;;5099137;28;20229;-92
2023/08/14 12:29:43;;;;;;;3.75;1.65;;;;;;;;;;5098780;28;20229;-96
2023/08/14 12:32:11;;;;;;;6.55;2.00;;;;;;;;;;5098373;28;20225;-91
2023/08/14 12:34:38;;;;;;;5.53;1.90;;;;;;;;;;5097561;28;20633;-93
2023/08/14 12:37:06;;;;;;;4.60;2.35;;;;;;;;;;5096605;28;20285;-92
2023/08/14 12:39:33;;;;;;;5.85;1.98;;;;;;;;;;5098172;28;20199;-93
2023/08/14 12:42:01;;;;;;;4.60;2.13;;;;;;;;;;5098306;28;20277;-94
2023/08/14 12:44:29;;;;;;;6.53;1.92;;;;;;;;;;5098376;28;20190;-94
2023/08/14 12:46:58;;;;;;;5.07;1.95;;;;;;;;;;5096826;28;20849;-94
2023/08/14 12:49:25;;;;;;;4.85;2.03;;;;;;;;;;5097152;28;20308;-93
2023/08/14 12:51:53;;;;;;;5.70;2.00;;;;;;;;;;5096753;28;20214;-95
2023/08/14 12:54:21;;;;;;;4.88;1.77;;;;;;;;;;5096230;28;20222;-90
2023/08/14 12:56:49;;;;;;;5.80;2.08;;;;;;;;;;5096604;28;20213;-93
2023/08/14 12:59:16;;;;;;;6.22;1.98;;;;;;;;;;5096452;28;20610;-91
2023/08/14 13:01:43;;;;;;;5.50;2.00;;;;;;;;;;5096813;28;20783;-91
2023/08/14 13:04:12;;;;;;;7.32;2.20;;;;;;;;;;5097341;28;20289;-95
2023/08/14 13:06:40;;;;;;;4.55;2.13;;;;;;;;;;5097191;28;20218;-93
2023/08/14 13:09:08;;;;;;;6.38;2.13;;;;;;;;;;5096543;28;20279;-94
2023/08/14 13:11:35;;;;;;;5.07;1.98;;;;;;;;;;5096966;28;20208;-93
2023/08/14 13:14:03;;;;;;;3.92;1.80;;;;;;;;;;5095933;28;20277;-91
2023/08/14 13:16:30;;;;;;;4.93;1.75;;;;;;;;;;5096801;28;20221;-94
2023/08/14 13:18:57;;;;;;;5.63;2.00;;;;;;;;;;5096356;28;20197;-94
2023/08/14 13:21:26;;;;;;;6.22;2.20;;;;;;;;;;5097372;28;20209;-93
2023/08/14 13:23:53;;;;;;;6.75;2.00;;;;;;;;;;5096372;28;20273;-93
2023/08/14 13:26:20;;;;;;;4.13;1.95;;;;;;;;;;5097007;28;20222;-92
2023/08/14 13:28:48;;;;;;;6.05;2.00;;;;;;;;;;5097046;28;20302;-93
2023/08/14 13:31:15;;;;;;;4.40;1.92;;;;;;;;;;5097410;28;20218;-92
2023/08/14 13:33:42;;;;;;;7.05;2.15;;;;;;;;;;5096974;28;20222;-94
2023/08/14 13:36:09;;;;;;;6.00;1.77;;;;;;;;;;5096601;28;20254;-94
2023/08/14 13:38:38;;;;;;;4.53;1.83;;;;;;;;;;5097078;28;20193;-92
2023/08/14 13:41:07;;;;;;;6.43;2.20;;;;;;;;;;5095300;28;20240;-94
2023/08/14 13:43:34;;;;;;;6.60;2.08;;;;;;;;;;5096955;28;20351;-94
2023/08/14 13:46:01;;;;;;;5.85;2.22;;;;;;;;;;5096499;28;20686;-94
2023/08/14 13:48:29;;;;;;;4.47;1.90;;;;;;;;;;5095308;28;20305;-94
2023/08/14 13:50:56;;;;;;;6.07;1.95;;;;;;;;;;5096403;28;20186;-93
2023/08/14 13:53:23;;;;;;;4.95;1.92;;;;;;;;;;5096156;28;20722;-94
2023/08/14 13:55:52;;;;;;;6.55;1.90;;;;;;;;;;5095532;28;20194;-93
2023/08/14 13:58:19;;;;;;;4.30;1.52;;;;;;;;;;5096023;28;20210;-94
2023/08/14 14:00:46;;;;;;;9.18;2.03;;;;;;;;;;5095355;28;20228;-93
2023/08/14 14:03:13;;;;;;;3.22;1.80;;;;;;;;;;5094944;28;20240;-93
2023/08/14 14:05:40;;;;;;;5.70;1.90;;;;;;;;;;5094784;28;20226;-94
2023/08/14 14:08:08;;;;;;;4.43;1.92;;;;;;;;;;5095626;27;20718;-92
2023/08/14 14:10:35;;;;;;;3.80;1.60;;;;;;;;;;5094835;28;20667;-94
2023/08/14 14:13:04;;;;;;;6.78;2.10;;;;;;;;;;5094966;28;20198;-95
2023/08/14 14:15:31;;;;;;;7.53;1.92;;;;;;;;;;5095247;28;20323;-95
2023/08/14 14:17:59;;;;;;;4.50;1.90;;;;;;;;;;5095109;28;20191;-94
2023/08/14 14:20:26;;;;;;;4.53;1.92;;;;;;;;;;5095380;28;20191;-94
2023/08/14 14:22:53;;;;;;;6.30;2.00;;;;;;;;;;5095651;28;20230;-94
2023/08/14 14:25:21;;;;;;;6.40;1.90;;;;;;;;;;5094625;28;20621;-94
2023/08/14 14:27:48;;;;;;;4.95;1.50;;;;;;;;;;5094796;28;20225;-95
2023/08/14 14:30:17;;;;;;;4.53;1.60;;;;;;;;;;5094582;28;20712;-92
2023/08/14 14:32:44;;;;;;;4.10;1.67;;;;;;;;;;5095137;28;20218;-94
2023/08/14 14:35:13;;;;;;;4.68;1.90;;;;;;;;;;5094613;28;20281;-93
2023/08/14 14:37:42;;;;;;;5.75;2.20;;;;;;;;;;5094667;28;20225;-93
2023/08/14 14:40:10;;;;;;;5.97;1.92;;;;;;;;;;5095477;28;20222;-94
2023/08/14 14:42:38;;;;;;;5.65;1.90;;;;;;;;;;5094834;28;20189;-93
2023/08/14 14:45:05;;;;;;;5.97;1.95;;;;;;;;;;5095545;28;20228;-93
2023/08/14 14:47:34;;;;;;;5.07;1.80;;;;;;;;;;5095363;28;20186;-92